createdAt,value
2022-09-20T00:04:55.804Z,1.00
2022-09-20T00:09:58.292Z,1.17
2022-09-20T00:15:00.788Z,0.70
2022-09-20T00:20:05.166Z,0.95
2022-09-20T00:25:09.145Z,1.30
2022-09-20T00:30:13.018Z,0.80
2022-09-20T00:35:17.596Z,0.90
2022-09-20T00:40:24.510Z,1.13
2022-09-20T00:45:28.556Z,1.00
2022-09-20T00:50:38.031Z,0.40
2022-09-20T00:55:46.494Z,0.85
2022-09-20T01:00:51.047Z,0.98
2022-09-20T01:10:58.522Z,0.70
2022-09-20T01:16:02.940Z,0.65
2022-09-20T01:21:08.076Z,0.85
2022-09-20T01:26:52.570Z,2.03
2022-09-20T01:32:01.009Z,1.27
2022-09-20T01:37:11.647Z,1.67
2022-09-20T01:42:15.622Z,2.25
2022-09-20T01:47:30.912Z,2.75
2022-09-20T01:52:54.822Z,1.65
2022-09-20T01:58:33.358Z,0.98
2022-09-20T02:03:58.405Z,1.00
2022-09-20T02:09:31.530Z,1.02
2022-09-20T02:14:46.762Z,1.20
2022-09-20T02:20:06.795Z,1.73
2022-09-20T02:25:21.607Z,0.80
2022-09-20T02:35:56.229Z,0.90
2022-09-20T02:41:35.029Z,0.68
2022-09-20T02:46:46.543Z,0.80
2022-09-20T02:51:53.493Z,0.88
2022-09-20T02:57:04.716Z,1.20
2022-09-20T03:02:13.099Z,0.82
2022-09-20T03:07:23.939Z,0.80
2022-09-20T03:12:37.041Z,1.05
2022-09-20T03:17:50.851Z,1.00
2022-09-20T03:23:02.077Z,1.20
2022-09-20T03:28:24.728Z,1.17
2022-09-20T03:33:37.944Z,1.05
2022-09-20T03:38:53.357Z,0.93
2022-09-20T03:44:19.087Z,0.90
2022-09-20T03:49:55.087Z,0.90
2022-09-20T03:55:33.595Z,1.23
2022-09-20T04:00:56.904Z,1.20
2022-09-20T04:06:14.839Z,1.63
2022-09-20T04:11:26.975Z,1.10
2022-09-20T04:16:38.779Z,1.73
2022-09-20T04:21:48.211Z,1.40
2022-09-20T04:26:59.547Z,0.90
2022-09-20T04:32:12.929Z,1.10
2022-09-20T04:37:27.764Z,1.23
2022-09-20T04:43:18.426Z,1.40
2022-09-20T04:48:54.556Z,1.45
2022-09-20T04:54:39.877Z,1.40
2022-09-20T05:05:25.807Z,1.38
2022-09-20T05:10:57.888Z,1.48
2022-09-20T05:16:07.157Z,1.05
2022-09-20T05:21:20.963Z,1.40
2022-09-20T05:26:38.909Z,1.50
2022-09-20T05:31:50.810Z,1.30
2022-09-20T05:37:00.442Z,1.52
2022-09-20T05:42:16.042Z,1.63
2022-09-20T05:47:25.865Z,1.48
2022-09-20T05:52:44.128Z,1.88
2022-09-20T05:58:01.239Z,1.70
2022-09-20T06:03:17.429Z,1.80
2022-09-20T06:08:34.714Z,1.63
2022-09-20T06:14:00.363Z,1.52
2022-09-20T06:19:12.772Z,1.23
2022-09-20T06:24:25.717Z,1.85
2022-09-20T06:29:33.182Z,1.52
2022-09-20T06:34:37.327Z,1.40
2022-09-20T06:40:04.037Z,1.70
2022-09-20T06:45:07.245Z,2.03
2022-09-20T06:50:16.315Z,1.80
2022-09-20T06:55:28.464Z,1.90
2022-09-20T07:00:31.683Z,1.60
2022-09-20T07:05:36.268Z,1.30
2022-09-20T07:15:41.336Z,1.40
2022-09-20T07:20:45.305Z,1.42
2022-09-20T07:25:47.950Z,2.28
2022-09-20T07:30:50.737Z,1.52
2022-09-20T07:35:55.896Z,1.30
2022-09-20T07:40:59.732Z,1.40
2022-09-20T07:46:02.330Z,1.27
2022-09-20T07:51:09.537Z,1.45
2022-09-20T07:56:14.327Z,1.42
2022-09-20T08:01:17.031Z,1.10
2022-09-20T08:06:21.411Z,1.30
2022-09-20T08:11:28.502Z,1.00
2022-09-20T08:16:32.726Z,1.50
2022-09-20T08:21:38.066Z,1.02
2022-09-20T08:26:40.796Z,1.80
2022-09-20T08:31:43.740Z,1.63
2022-09-20T08:36:51.751Z,1.70
2022-09-20T08:42:00.525Z,1.80
2022-09-20T08:47:09.827Z,1.83
2022-09-20T08:52:18.961Z,2.20
2022-09-20T08:57:21.836Z,1.95
2022-09-20T09:02:24.454Z,1.40
2022-09-20T09:07:29.077Z,1.75
2022-09-20T09:12:36.747Z,2.00
2022-09-20T09:17:39.170Z,1.95
2022-09-20T09:22:45.779Z,1.50
2022-09-20T09:27:57.019Z,1.67
2022-09-20T09:33:18.749Z,1.85
2022-09-20T09:38:26.040Z,1.75
2022-09-20T09:43:32.512Z,1.65
2022-09-20T09:48:37.217Z,2.00
2022-09-20T09:53:43.575Z,1.63
2022-09-20T09:59:02.532Z,1.63
2022-09-20T10:04:14.930Z,2.00
2022-09-20T10:09:28.408Z,1.77
2022-09-20T10:14:45.586Z,1.65
2022-09-20T10:20:01.982Z,1.83
2022-09-20T10:25:17.160Z,2.20
2022-09-20T10:30:22.038Z,1.98
2022-09-20T10:35:30.925Z,2.10
2022-09-20T10:40:57.565Z,1.70
2022-09-20T10:46:31.288Z,1.60
2022-09-20T10:51:45.633Z,1.63
2022-09-20T10:56:56.355Z,1.60
2022-09-20T11:02:14.676Z,1.95
2022-09-20T11:07:20.440Z,1.60
2022-09-20T11:12:29.697Z,1.60
2022-09-20T11:17:36.945Z,1.27
2022-09-20T11:22:44.947Z,1.27
2022-09-20T11:27:54.733Z,1.50
2022-09-20T11:33:02.998Z,1.45
2022-09-20T11:38:14.178Z,1.88
2022-09-20T11:43:20.029Z,1.35
2022-09-20T11:48:26.884Z,1.40
2022-09-20T11:53:43.000Z,1.70
2022-09-20T11:58:49.208Z,1.80
2022-09-20T12:04:14.164Z,2.03
2022-09-20T12:09:26.389Z,1.95
2022-09-20T12:14:32.307Z,1.70
2022-09-20T12:19:40.259Z,2.22
2022-09-20T12:24:45.489Z,2.40
2022-09-20T12:30:17.539Z,3.75
2022-09-20T12:35:59.917Z,3.72
2022-09-20T12:41:07.817Z,4.67
2022-09-20T12:46:21.910Z,7.68
2022-09-20T12:51:59.231Z,3.08
2022-09-20T12:57:19.225Z,3.33
2022-09-20T13:02:57.495Z,1.95
2022-09-20T13:08:03.463Z,1.95
2022-09-20T13:13:17.040Z,2.40
2022-09-20T13:18:22.128Z,2.05
2022-09-20T13:23:27.983Z,2.10
2022-09-20T13:28:38.394Z,1.95
2022-09-20T13:33:43.246Z,2.63
2022-09-20T13:38:48.300Z,1.80
2022-09-20T13:43:52.056Z,1.40
2022-09-20T13:49:17.541Z,1.92
2022-09-20T13:54:27.207Z,1.10
2022-09-20T13:59:34.559Z,0.90
2022-09-20T14:04:40.462Z,0.90
2022-09-20T14:09:43.716Z,1.10
2022-09-20T14:14:47.529Z,0.80
2022-09-20T14:19:54.520Z,0.88
2022-09-20T14:25:01.338Z,1.10
2022-09-20T14:30:07.366Z,0.82
2022-09-20T14:35:17.657Z,1.00
2022-09-20T14:40:23.865Z,1.30
2022-09-20T14:45:32.568Z,1.17
2022-09-20T14:50:39.255Z,1.65
2022-09-20T14:55:58.979Z,1.52
2022-09-20T15:01:05.948Z,1.60
2022-09-20T15:06:14.643Z,1.30
2022-09-20T15:11:17.829Z,1.40
2022-09-20T15:16:22.365Z,1.50
2022-09-20T15:21:28.854Z,1.58
2022-09-20T15:26:34.545Z,1.60
2022-09-20T15:31:37.339Z,1.58
2022-09-20T15:36:42.730Z,1.48
2022-09-20T15:41:46.073Z,1.20
2022-09-20T15:46:50.751Z,1.00
2022-09-20T15:51:54.668Z,1.15
2022-09-20T15:56:58.421Z,1.30
2022-09-20T16:02:02.302Z,1.80
2022-09-20T16:07:09.559Z,1.17
2022-09-20T16:12:12.115Z,1.33
2022-09-20T16:17:14.694Z,1.35
2022-09-20T16:22:19.622Z,1.35
2022-09-20T16:27:22.300Z,1.10
2022-09-20T16:32:24.797Z,1.20
2022-09-20T16:37:32.751Z,0.93
2022-09-20T16:42:35.288Z,1.38
2022-09-20T16:47:37.883Z,2.20
2022-09-20T16:52:41.982Z,3.15
2022-09-20T16:57:44.429Z,3.30
2022-09-20T17:02:47.976Z,3.60
2022-09-20T17:07:51.875Z,2.77
2022-09-20T17:12:58.022Z,2.30
2022-09-20T17:18:00.552Z,1.80
2022-09-20T17:23:07.961Z,1.70
2022-09-20T17:28:10.564Z,1.60
2022-09-20T17:33:13.223Z,1.58
2022-09-20T17:38:17.520Z,1.70
2022-09-20T17:43:19.980Z,2.28
2022-09-20T17:48:24.322Z,4.30
2022-09-20T17:53:28.122Z,2.67
2022-09-20T17:58:31.310Z,3.70
2022-09-20T18:03:38.114Z,6.47
2022-09-20T18:08:42.675Z,6.45
2022-09-20T18:18:49.676Z,4.32
2022-09-20T18:23:54.183Z,5.03
2022-09-20T18:34:01.203Z,5.15
2022-09-20T18:39:06.072Z,4.55
2022-09-20T18:44:09.050Z,4.68
2022-09-20T18:49:15.190Z,3.50
2022-09-20T18:54:19.765Z,2.80
2022-09-20T19:04:35.433Z,2.13
2022-09-20T19:09:47.463Z,3.53
2022-09-20T19:15:05.847Z,5.18
2022-09-20T19:20:19.700Z,3.90
2022-09-20T19:25:29.615Z,3.80
2022-09-20T19:30:32.927Z,2.92
2022-09-20T19:35:39.427Z,2.95
2022-09-20T19:40:59.563Z,2.50
2022-09-20T19:46:13.435Z,2.88
2022-09-20T19:51:17.071Z,2.60
2022-09-20T19:56:25.674Z,2.63
2022-09-20T20:01:29.023Z,2.88
2022-09-20T20:06:36.272Z,3.35
2022-09-20T20:11:48.720Z,10.30
2022-09-20T20:17:01.603Z,6.53
2022-09-20T20:22:12.694Z,6.88
2022-09-20T20:27:16.711Z,4.78
2022-09-20T20:32:19.461Z,3.53
2022-09-20T20:37:24.314Z,2.75
2022-09-20T20:42:30.804Z,3.13
2022-09-20T20:47:34.385Z,3.45
2022-09-20T20:52:37.235Z,2.70
2022-09-20T20:57:41.298Z,2.47
2022-09-20T21:02:45.057Z,2.63
2022-09-20T21:07:51.608Z,2.90
2022-09-20T21:12:56.323Z,2.90
2022-09-20T21:17:59.176Z,2.88
2022-09-20T21:23:01.803Z,3.03
2022-09-20T21:28:05.877Z,3.00
2022-09-20T21:33:08.574Z,2.35
2022-09-20T21:38:11.464Z,2.72
2022-09-20T21:43:15.578Z,3.08
2022-09-20T21:48:18.755Z,3.22
2022-09-20T21:53:21.361Z,3.20
2022-09-20T21:58:25.780Z,2.65
2022-09-20T22:03:33.424Z,2.00
2022-09-20T22:08:36.978Z,2.80
2022-09-20T22:13:44.959Z,2.63
2022-09-20T22:18:48.314Z,2.80
2022-09-20T22:23:52.866Z,2.78
2022-09-20T22:34:02.061Z,2.78
2022-09-20T22:39:07.322Z,3.50
2022-09-20T22:44:12.372Z,2.97
2022-09-20T22:49:14.815Z,3.10
2022-09-20T22:54:17.530Z,3.03
2022-09-20T22:59:21.880Z,3.00
2022-09-20T23:04:24.563Z,2.03
2022-09-20T23:09:29.637Z,2.55
2022-09-20T23:14:33.665Z,3.20
2022-09-20T23:19:36.361Z,3.40
2022-09-20T23:24:39.129Z,2.80
2022-09-20T23:29:42.870Z,3.00
2022-09-20T23:34:45.319Z,2.70
2022-09-20T23:39:47.757Z,2.67
2022-09-20T23:44:51.925Z,3.15
2022-09-20T23:49:54.626Z,3.05
2022-09-20T23:54:57.328Z,3.22
